Terminal Aerodrome Forecast
Issued by NWS

Home | Current Version | Previous Version | Text Only | Print | Product List | Glossary On
Versions: 1 2 3 4 5 6 7 8 9 10 11 12 13 14 15 16 17 18 19 20
000
FTUS41 KCAR 272320
TAFBHB
TAF
KBHB 272320Z 2800/2824 10012KT 2SM -FZRASNPL BR OVC010
      TEMPO 2800/2804 4SM -SN BR OVC015
     FM280400 06007KT 2SM BR OVC010
     FM281300 07006KT P6SM OVC010=

USA.gov is the U.S. government's official web portal to all federal, state and local government web resources and services.